sensor_id;sensor_type;location;lat;lon;timestamp;pressure;altitude;pressure_sealevel;temperature;humidity
47897;BME280;39629;51.400;5.494;2023-03-04T00:04:49;102491.91;;;4.40;100.00
47897;BME280;39629;51.400;5.494;2023-03-04T00:09:50;102489.22;;;4.39;100.00
47897;BME280;39629;51.400;5.494;2023-03-04T00:14:52;102493.31;;;4.34;100.00
47897;BME280;39629;51.400;5.494;2023-03-04T00:19:55;102494.19;;;4.34;100.00
47897;BME280;39629;51.400;5.494;2023-03-04T00:24:56;102496.00;;;4.35;100.00
47897;BME280;39629;51.400;5.494;2023-03-04T00:29:58;102477.53;;;4.31;100.00
47897;BME280;39629;51.400;5.494;2023-03-04T00:35:01;102486.91;;;4.27;100.00
47897;BME280;39629;51.400;5.494;2023-03-04T00:40:04;102471.41;;;4.30;100.00
47897;BME280;39629;51.400;5.494;2023-03-04T00:45:07;102481.84;;;4.30;100.00
47897;BME280;39629;51.400;5.494;2023-03-04T00:50:11;102480.06;;;4.29;100.00
47897;BME280;39629;51.400;5.494;2023-03-04T00:55:12;102485.44;;;4.32;100.00
47897;BME280;39629;51.400;5.494;2023-03-04T01:05:18;102481.09;;;4.33;100.00
47897;BME280;39629;51.400;5.494;2023-03-04T01:10:19;102483.34;;;4.25;100.00
47897;BME280;39629;51.400;5.494;2023-03-04T01:15:21;102488.25;;;4.37;100.00
47897;BME280;39629;51.400;5.494;2023-03-04T01:20:25;102489.06;;;4.36;100.00
47897;BME280;39629;51.400;5.494;2023-03-04T01:25:26;102480.50;;;4.38;100.00
47897;BME280;39629;51.400;5.494;2023-03-04T01:30:28;102479.91;;;4.44;100.00
47897;BME280;39629;51.400;5.494;2023-03-04T01:35:31;102476.34;;;4.42;100.00
47897;BME280;39629;51.400;5.494;2023-03-04T01:40:33;102470.91;;;4.37;100.00
47897;BME280;39629;51.400;5.494;2023-03-04T01:45:34;102455.69;;;4.47;100.00
47897;BME280;39629;51.400;5.494;2023-03-04T01:50:38;102461.75;;;4.46;100.00
47897;BME280;39629;51.400;5.494;2023-03-04T01:55:39;102453.69;;;4.41;100.00
47897;BME280;39629;51.400;5.494;2023-03-04T02:00:41;102452.13;;;4.45;100.00
47897;BME280;39629;51.400;5.494;2023-03-04T02:05:46;102444.47;;;4.48;100.00
47897;BME280;39629;51.400;5.494;2023-03-04T02:10:49;102442.66;;;4.47;100.00
47897;BME280;39629;51.400;5.494;2023-03-04T02:15:51;102435.81;;;4.49;100.00
47897;BME280;39629;51.400;5.494;2023-03-04T02:20:59;102424.41;;;4.47;100.00
47897;BME280;39629;51.400;5.494;2023-03-04T02:26:12;102433.22;;;4.49;100.00
47897;BME280;39629;51.400;5.494;2023-03-04T02:31:22;102430.75;;;4.52;100.00
47897;BME280;39629;51.400;5.494;2023-03-04T02:36:24;102426.22;;;4.48;100.00
47897;BME280;39629;51.400;5.494;2023-03-04T02:41:28;102426.59;;;4.55;100.00
47897;BME280;39629;51.400;5.494;2023-03-04T02:46:31;102427.88;;;4.46;100.00
47897;BME280;39629;51.400;5.494;2023-03-04T02:51:33;102416.00;;;4.52;100.00
47897;BME280;39629;51.400;5.494;2023-03-04T02:56:36;102408.25;;;4.54;100.00
47897;BME280;39629;51.400;5.494;2023-03-04T03:01:38;102409.00;;;4.51;100.00
47897;BME280;39629;51.400;5.494;2023-03-04T03:06:39;102411.09;;;4.40;100.00
47897;BME280;39629;51.400;5.494;2023-03-04T03:11:43;102403.34;;;4.42;100.00
47897;BME280;39629;51.400;5.494;2023-03-04T03:16:44;102404.16;;;4.41;100.00
47897;BME280;39629;51.400;5.494;2023-03-04T03:21:46;102400.00;;;4.45;100.00
47897;BME280;39629;51.400;5.494;2023-03-04T03:26:50;102404.41;;;4.46;100.00
47897;BME280;39629;51.400;5.494;2023-03-04T03:31:52;102391.44;;;4.47;100.00
47897;BME280;39629;51.400;5.494;2023-03-04T03:36:54;102390.66;;;4.50;100.00
47897;BME280;39629;51.400;5.494;2023-03-04T03:41:57;102384.38;;;4.45;100.00
47897;BME280;39629;51.400;5.494;2023-03-04T03:46:59;102394.84;;;4.46;100.00
47897;BME280;39629;51.400;5.494;2023-03-04T03:52:00;102386.06;;;4.44;100.00
47897;BME280;39629;51.400;5.494;2023-03-04T03:57:03;102387.91;;;4.47;100.00
47897;BME280;39629;51.400;5.494;2023-03-04T04:02:05;102387.84;;;4.45;100.00
47897;BME280;39629;51.400;5.494;2023-03-04T04:07:07;102385.19;;;4.43;100.00
47897;BME280;39629;51.400;5.494;2023-03-04T04:12:11;102391.28;;;4.44;100.00
47897;BME280;39629;51.400;5.494;2023-03-04T04:17:14;102392.84;;;4.40;100.00
47897;BME280;39629;51.400;5.494;2023-03-04T04:22:18;102388.47;;;4.39;100.00
47897;BME280;39629;51.400;5.494;2023-03-04T04:27:21;102390.94;;;4.36;100.00
47897;BME280;39629;51.400;5.494;2023-03-04T04:32:22;102393.81;;;4.42;100.00
47897;BME280;39629;51.400;5.494;2023-03-04T04:37:24;102398.34;;;4.47;100.00
47897;BME280;39629;51.400;5.494;2023-03-04T04:42:27;102392.84;;;4.40;100.00
47897;BME280;39629;51.400;5.494;2023-03-04T04:47:29;102400.53;;;4.37;100.00
47897;BME280;39629;51.400;5.494;2023-03-04T04:52:30;102397.47;;;4.46;100.00
47897;BME280;39629;51.400;5.494;2023-03-04T04:57:33;102403.34;;;4.42;100.00
47897;BME280;39629;51.400;5.494;2023-03-04T05:02:35;102403.97;;;4.36;100.00
47897;BME280;39629;51.400;5.494;2023-03-04T05:07:37;102409.09;;;4.35;100.00
47897;BME280;39629;51.400;5.494;2023-03-04T05:12:40;102410.78;;;4.34;100.00
47897;BME280;39629;51.400;5.494;2023-03-04T05:17:41;102394.41;;;4.37;100.00
47897;BME280;39629;51.400;5.494;2023-03-04T05:22:43;102391.66;;;4.34;100.00
47897;BME280;39629;51.400;5.494;2023-03-04T05:27:46;102399.50;;;4.34;100.00
47897;BME280;39629;51.400;5.494;2023-03-04T05:32:47;102394.28;;;4.34;100.00
47897;BME280;39629;51.400;5.494;2023-03-04T05:37:49;102406.13;;;4.27;100.00
47897;BME280;39629;51.400;5.494;2023-03-04T05:42:52;102397.28;;;4.23;100.00
47897;BME280;39629;51.400;5.494;2023-03-04T05:47:53;102407.91;;;4.28;100.00
47897;BME280;39629;51.400;5.494;2023-03-04T05:52:55;102415.06;;;4.32;100.00
47897;BME280;39629;51.400;5.494;2023-03-04T05:57:58;102409.78;;;4.31;100.00
47897;BME280;39629;51.400;5.494;2023-03-04T06:03:00;102405.50;;;4.33;100.00
47897;BME280;39629;51.400;5.494;2023-03-04T06:08:01;102414.06;;;4.30;100.00
47897;BME280;39629;51.400;5.494;2023-03-04T06:13:04;102409.53;;;4.26;100.00
47897;BME280;39629;51.400;5.494;2023-03-04T06:18:06;102412.81;;;4.22;100.00
47897;BME280;39629;51.400;5.494;2023-03-04T06:23:08;102419.13;;;4.27;100.00
47897;BME280;39629;51.400;5.494;2023-03-04T06:28:11;102425.28;;;4.28;100.00
47897;BME280;39629;51.400;5.494;2023-03-04T06:33:12;102422.72;;;4.29;100.00
47897;BME280;39629;51.400;5.494;2023-03-04T06:38:14;102434.09;;;4.31;100.00
47897;BME280;39629;51.400;5.494;2023-03-04T06:43:17;102436.50;;;4.27;100.00
47897;BME280;39629;51.400;5.494;2023-03-04T06:48:19;102436.44;;;4.25;100.00
47897;BME280;39629;51.400;5.494;2023-03-04T06:53:21;102438.13;;;4.24;100.00
47897;BME280;39629;51.400;5.494;2023-03-04T06:58:24;102446.00;;;4.26;100.00
47897;BME280;39629;51.400;5.494;2023-03-04T07:03:25;102441.78;;;4.28;100.00
47897;BME280;39629;51.400;5.494;2023-03-04T07:08:27;102449.47;;;4.25;100.00
47897;BME280;39629;51.400;5.494;2023-03-04T07:13:30;102449.59;;;4.28;100.00
47897;BME280;39629;51.400;5.494;2023-03-04T07:18:33;102449.59;;;4.28;100.00
47897;BME280;39629;51.400;5.494;2023-03-04T07:23:35;102457.88;;;4.19;100.00
47897;BME280;39629;51.400;5.494;2023-03-04T07:28:38;102464.13;;;4.23;100.00
47897;BME280;39629;51.400;5.494;2023-03-04T07:33:41;102464.13;;;4.23;100.00
47897;BME280;39629;51.400;5.494;2023-03-04T07:38:43;102470.31;;;4.25;100.00
47897;BME280;39629;51.400;5.494;2023-03-04T07:43:47;102473.13;;;4.30;100.00
47897;BME280;39629;51.400;5.494;2023-03-04T07:48:48;102468.13;;;4.34;100.00
47897;BME280;39629;51.400;5.494;2023-03-04T07:53:51;102478.22;;;4.45;100.00
47897;BME280;39629;51.400;5.494;2023-03-04T07:58:54;102473.41;;;4.54;100.00
47897;BME280;39629;51.400;5.494;2023-03-04T08:03:56;102481.25;;;4.54;100.00
47897;BME280;39629;51.400;5.494;2023-03-04T08:08:59;102488.50;;;4.59;100.00
47897;BME280;39629;51.400;5.494;2023-03-04T08:14:03;102489.59;;;4.65;100.00
47897;BME280;39629;51.400;5.494;2023-03-04T08:19:04;102486.91;;;4.63;100.00
47897;BME280;39629;51.400;5.494;2023-03-04T08:24:06;102487.28;;;4.71;100.00
47897;BME280;39629;51.400;5.494;2023-03-04T08:29:11;102486.00;;;4.81;100.00
47897;BME280;39629;51.400;5.494;2023-03-04T08:34:13;102491.81;;;4.93;100.00
47897;BME280;39629;51.400;5.494;2023-03-04T08:39:16;102490.53;;;5.03;100.00
47897;BME280;39629;51.400;5.494;2023-03-04T08:44:19;102484.91;;;5.33;100.00
47897;BME280;39629;51.400;5.494;2023-03-04T08:49:21;102488.00;;;5.63;100.00
47897;BME280;39629;51.400;5.494;2023-03-04T08:54:22;102486.06;;;5.59;100.00
47897;BME280;39629;51.400;5.494;2023-03-04T08:59:25;102489.50;;;5.77;100.00
47897;BME280;39629;51.400;5.494;2023-03-04T09:04:27;102487.16;;;6.05;100.00
47897;BME280;39629;51.400;5.494;2023-03-04T09:09:28;102490.22;;;5.94;100.00
47897;BME280;39629;51.400;5.494;2023-03-04T09:14:32;102488.31;;;6.33;100.00
47897;BME280;39629;51.400;5.494;2023-03-04T09:19:35;102467.59;;;6.81;100.00
47897;BME280;39629;51.400;5.494;2023-03-04T09:24:37;102477.16;;;6.58;100.00
47897;BME280;39629;51.400;5.494;2023-03-04T09:29:40;102463.84;;;6.52;100.00
47897;BME280;39629;51.400;5.494;2023-03-04T09:34:42;102458.88;;;7.52;100.00
47897;BME280;39629;51.400;5.494;2023-03-04T09:39:44;102461.19;;;7.44;100.00
47897;BME280;39629;51.400;5.494;2023-03-04T09:44:47;102461.41;;;7.02;100.00
47897;BME280;39629;51.400;5.494;2023-03-04T09:49:53;102453.06;;;7.36;100.00
47897;BME280;39629;51.400;5.494;2023-03-04T09:55:04;102459.88;;;7.55;100.00
47897;BME280;39629;51.400;5.494;2023-03-04T10:00:12;102453.97;;;7.61;100.00
47897;BME280;39629;51.400;5.494;2023-03-04T10:05:20;102446.41;;;7.70;100.00
47897;BME280;39629;51.400;5.494;2023-03-04T10:10:25;102444.09;;;7.79;100.00
47897;BME280;39629;51.400;5.494;2023-03-04T10:15:35;102445.03;;;7.56;100.00
47897;BME280;39629;51.400;5.494;2023-03-04T10:20:47;102444.81;;;7.49;100.00
47897;BME280;39629;51.400;5.494;2023-03-04T10:25:50;102437.91;;;7.52;100.00
47897;BME280;39629;51.400;5.494;2023-03-04T10:30:58;102443.91;;;7.49;100.00
47897;BME280;39629;51.400;5.494;2023-03-04T10:36:04;102442.78;;;7.17;100.00
47897;BME280;39629;51.400;5.494;2023-03-04T10:41:10;102432.28;;;7.17;100.00
47897;BME280;39629;51.400;5.494;2023-03-04T10:46:14;102433.19;;;7.41;100.00
47897;BME280;39629;51.400;5.494;2023-03-04T10:51:19;102432.84;;;8.09;100.00
47897;BME280;39629;51.400;5.494;2023-03-04T10:56:32;102424.78;;;8.58;100.00
47897;BME280;39629;51.400;5.494;2023-03-04T11:01:35;102419.53;;;8.29;100.00
47897;BME280;39629;51.400;5.494;2023-03-04T11:06:39;102413.50;;;7.78;100.00
47897;BME280;39629;51.400;5.494;2023-03-04T11:11:42;102422.38;;;7.58;100.00
47897;BME280;39629;51.400;5.494;2023-03-04T11:16:54;102416.38;;;7.60;100.00
47897;BME280;39629;51.400;5.494;2023-03-04T11:21:57;102410.34;;;7.63;100.00
47897;BME280;39629;51.400;5.494;2023-03-04T11:27:03;102405.84;;;7.33;100.00
47897;BME280;39629;51.400;5.494;2023-03-04T11:32:11;102406.50;;;7.03;100.00
47897;BME280;39629;51.400;5.494;2023-03-04T11:37:18;102392.38;;;6.99;100.00
47897;BME280;39629;51.400;5.494;2023-03-04T11:42:30;102391.22;;;7.15;100.00
47897;BME280;39629;51.400;5.494;2023-03-04T11:47:45;102388.94;;;7.25;100.00
47897;BME280;39629;51.400;5.494;2023-03-04T11:52:54;102382.66;;;7.20;100.00
47897;BME280;39629;51.400;5.494;2023-03-04T11:58:13;102386.00;;;7.15;100.00
47897;BME280;39629;51.400;5.494;2023-03-04T12:03:40;102374.06;;;6.75;100.00
47897;BME280;39629;51.400;5.494;2023-03-04T12:08:56;102368.81;;;6.75;100.00
47897;BME280;39629;51.400;5.494;2023-03-04T12:14:07;102354.09;;;7.27;100.00
47897;BME280;39629;51.400;5.494;2023-03-04T12:19:22;102353.50;;;7.35;100.00
47897;BME280;39629;51.400;5.494;2023-03-04T12:24:35;102346.53;;;7.35;100.00
47897;BME280;39629;51.400;5.494;2023-03-04T12:29:45;102324.25;;;7.74;100.00
47897;BME280;39629;51.400;5.494;2023-03-04T12:35:13;102318.78;;;7.95;100.00
47897;BME280;39629;51.400;5.494;2023-03-04T12:40:29;102319.69;;;7.68;100.00
47897;BME280;39629;51.400;5.494;2023-03-04T12:45:39;102313.84;;;7.77;100.00
47897;BME280;39629;51.400;5.494;2023-03-04T12:50:52;102304.56;;;7.87;100.00
47897;BME280;39629;51.400;5.494;2023-03-04T12:55:58;102293.44;;;8.23;100.00
47897;BME280;39629;51.400;5.494;2023-03-04T13:01:05;102292.81;;;8.62;100.00
47897;BME280;39629;51.400;5.494;2023-03-04T13:06:20;102277.31;;;8.10;100.00
47897;BME280;39629;51.400;5.494;2023-03-04T13:11:39;102279.06;;;8.10;100.00
47897;BME280;39629;51.400;5.494;2023-03-04T13:16:44;102269.28;;;8.04;100.00
47897;BME280;39629;51.400;5.494;2023-03-04T13:21:47;102273.75;;;8.07;100.00
47897;BME280;39629;51.400;5.494;2023-03-04T13:26:53;102268.38;;;7.75;100.00
47897;BME280;39629;51.400;5.494;2023-03-04T13:32:00;102258.97;;;7.81;100.00
47897;BME280;39629;51.400;5.494;2023-03-04T13:37:26;102255.91;;;7.67;100.00
47897;BME280;39629;51.400;5.494;2023-03-04T13:42:39;102267.91;;;7.33;100.00
47897;BME280;39629;51.400;5.494;2023-03-04T13:47:46;102278.28;;;7.30;100.00
47897;BME280;39629;51.400;5.494;2023-03-04T13:52:50;102263.97;;;6.95;100.00
47897;BME280;39629;51.400;5.494;2023-03-04T13:57:52;102264.22;;;7.01;100.00
47897;BME280;39629;51.400;5.494;2023-03-04T14:02:54;102264.94;;;6.97;100.00
47897;BME280;39629;51.400;5.494;2023-03-04T14:08:16;102251.63;;;7.17;100.00
47897;BME280;39629;51.400;5.494;2023-03-04T14:13:18;102253.81;;;6.78;100.00
47897;BME280;39629;51.400;5.494;2023-03-04T14:18:20;102247.53;;;6.99;100.00
47897;BME280;39629;51.400;5.494;2023-03-04T14:23:26;102251.88;;;6.73;100.00
47897;BME280;39629;51.400;5.494;2023-03-04T14:28:28;102248.38;;;6.72;100.00
47897;BME280;39629;51.400;5.494;2023-03-04T14:33:30;102232.31;;;6.87;100.00
47897;BME280;39629;51.400;5.494;2023-03-04T14:38:34;102228.38;;;6.74;100.00
47897;BME280;39629;51.400;5.494;2023-03-04T14:43:52;102222.63;;;6.85;100.00
47897;BME280;39629;51.400;5.494;2023-03-04T14:48:56;102217.16;;;7.03;100.00
47897;BME280;39629;51.400;5.494;2023-03-04T14:54:00;102208.69;;;7.11;100.00
47897;BME280;39629;51.400;5.494;2023-03-04T14:59:01;102208.38;;;7.28;100.00
47897;BME280;39629;51.400;5.494;2023-03-04T15:04:04;102193.19;;;7.45;100.00
47897;BME280;39629;51.400;5.494;2023-03-04T15:09:18;102196.53;;;7.13;100.00
47897;BME280;39629;51.400;5.494;2023-03-04T15:14:40;102197.81;;;6.99;100.00
47897;BME280;39629;51.400;5.494;2023-03-04T15:19:42;102185.00;;;7.07;100.00
47897;BME280;39629;51.400;5.494;2023-03-04T15:24:45;102168.97;;;7.23;100.00
47897;BME280;39629;51.400;5.494;2023-03-04T15:29:49;102179.16;;;7.15;100.00
47897;BME280;39629;51.400;5.494;2023-03-04T15:34:51;102185.94;;;7.36;100.00
47897;BME280;39629;51.400;5.494;2023-03-04T15:39:54;102177.25;;;7.37;100.00
47897;BME280;39629;51.400;5.494;2023-03-04T15:44:56;102173.19;;;7.20;100.00
47897;BME280;39629;51.400;5.494;2023-03-04T15:49:58;102175.25;;;7.30;100.00
47897;BME280;39629;51.400;5.494;2023-03-04T15:55:01;102178.81;;;7.32;100.00
47897;BME280;39629;51.400;5.494;2023-03-04T16:00:03;102171.63;;;7.25;100.00
47897;BME280;39629;51.400;5.494;2023-03-04T16:05:11;102173.34;;;7.24;100.00
47897;BME280;39629;51.400;5.494;2023-03-04T16:10:19;102173.25;;;6.95;100.00
47897;BME280;39629;51.400;5.494;2023-03-04T16:15:23;102173.91;;;6.88;100.00
47897;BME280;39629;51.400;5.494;2023-03-04T16:20:28;102176.41;;;6.85;100.00
47897;BME280;39629;51.400;5.494;2023-03-04T16:25:31;102183.22;;;6.80;100.00
47897;BME280;39629;51.400;5.494;2023-03-04T16:30:33;102174.38;;;6.76;100.00
47897;BME280;39629;51.400;5.494;2023-03-04T16:35:35;102173.19;;;6.67;100.00
47897;BME280;39629;51.400;5.494;2023-03-04T16:40:38;102174.78;;;6.63;100.00
47897;BME280;39629;51.400;5.494;2023-03-04T16:45:40;102179.03;;;6.59;100.00
47897;BME280;39629;51.400;5.494;2023-03-04T16:50:42;102174.41;;;6.52;100.00
47897;BME280;39629;51.400;5.494;2023-03-04T16:55:46;102178.50;;;6.45;100.00
47897;BME280;39629;51.400;5.494;2023-03-04T17:00:47;102185.34;;;6.42;100.00
47897;BME280;39629;51.400;5.494;2023-03-04T17:05:49;102178.78;;;6.29;100.00
47897;BME280;39629;51.400;5.494;2023-03-04T17:10:52;102181.16;;;6.23;100.00
47897;BME280;39629;51.400;5.494;2023-03-04T17:15:53;102183.69;;;6.20;100.00
47897;BME280;39629;51.400;5.494;2023-03-04T17:21:00;102191.47;;;6.18;100.00
47897;BME280;39629;51.400;5.494;2023-03-04T17:26:04;102190.34;;;6.11;100.00
47897;BME280;39629;51.400;5.494;2023-03-04T17:31:08;102199.69;;;6.05;100.00
47897;BME280;39629;51.400;5.494;2023-03-04T17:36:10;102189.88;;;5.99;100.00
47897;BME280;39629;51.400;5.494;2023-03-04T17:41:14;102188.00;;;5.95;100.00
47897;BME280;39629;51.400;5.494;2023-03-04T17:46:19;102203.59;;;5.93;100.00
47897;BME280;39629;51.400;5.494;2023-03-04T17:51:28;102200.13;;;5.93;100.00
47897;BME280;39629;51.400;5.494;2023-03-04T17:56:32;102205.09;;;5.87;100.00
47897;BME280;39629;51.400;5.494;2023-03-04T18:01:34;102206.72;;;5.83;100.00
47897;BME280;39629;51.400;5.494;2023-03-04T18:06:35;102211.75;;;5.78;100.00
47897;BME280;39629;51.400;5.494;2023-03-04T18:11:39;102206.50;;;5.78;100.00
47897;BME280;39629;51.400;5.494;2023-03-04T18:16:41;102205.47;;;5.73;100.00
47897;BME280;39629;51.400;5.494;2023-03-04T18:21:43;102209.41;;;5.63;100.00
47897;BME280;39629;51.400;5.494;2023-03-04T18:26:46;102204.13;;;5.62;100.00
47897;BME280;39629;51.400;5.494;2023-03-04T18:31:48;102202.22;;;5.58;100.00
47897;BME280;39629;51.400;5.494;2023-03-04T18:36:49;102198.69;;;5.56;100.00
47897;BME280;39629;51.400;5.494;2023-03-04T18:41:52;102202.81;;;5.51;100.00
47897;BME280;39629;51.400;5.494;2023-03-04T18:46:55;102200.09;;;5.48;100.00
47897;BME280;39629;51.400;5.494;2023-03-04T18:51:58;102206.19;;;5.48;100.00
47897;BME280;39629;51.400;5.494;2023-03-04T18:57:04;102212.19;;;5.45;100.00
47897;BME280;39629;51.400;5.494;2023-03-04T19:02:12;102220.59;;;5.38;100.00
47897;BME280;39629;51.400;5.494;2023-03-04T19:07:16;102218.97;;;5.40;100.00
47897;BME280;39629;51.400;5.494;2023-03-04T19:12:19;102218.84;;;5.37;100.00
47897;BME280;39629;51.400;5.494;2023-03-04T19:17:20;102220.53;;;5.37;100.00
47897;BME280;39629;51.400;5.494;2023-03-04T19:22:22;102218.75;;;5.36;100.00
47897;BME280;39629;51.400;5.494;2023-03-04T19:27:25;102208.41;;;5.37;100.00
47897;BME280;39629;51.400;5.494;2023-03-04T19:32:26;102212.72;;;5.37;100.00
47897;BME280;39629;51.400;5.494;2023-03-04T19:37:28;102204.59;;;5.29;100.00
47897;BME280;39629;51.400;5.494;2023-03-04T19:42:31;102202.22;;;5.35;100.00
47897;BME280;39629;51.400;5.494;2023-03-04T19:47:33;102204.81;;;5.35;100.00
47897;BME280;39629;51.400;5.494;2023-03-04T19:52:35;102197.63;;;5.30;100.00
47897;BME280;39629;51.400;5.494;2023-03-04T19:57:38;102193.88;;;5.23;100.00
47897;BME280;39629;51.400;5.494;2023-03-04T20:02:41;102202.53;;;5.22;100.00
47897;BME280;39629;51.400;5.494;2023-03-04T20:07:44;102204.44;;;5.26;100.00
47897;BME280;39629;51.400;5.494;2023-03-04T20:12:47;102186.88;;;5.22;100.00
47897;BME280;39629;51.400;5.494;2023-03-04T20:17:49;102190.19;;;5.18;100.00
47897;BME280;39629;51.400;5.494;2023-03-04T20:22:51;102186.56;;;5.14;100.00
47897;BME280;39629;51.400;5.494;2023-03-04T20:27:53;102195.03;;;5.08;100.00
47897;BME280;39629;51.400;5.494;2023-03-04T20:32:56;102203.00;;;5.11;100.00
47897;BME280;39629;51.400;5.494;2023-03-04T20:37:58;102201.31;;;5.14;100.00
47897;BME280;39629;51.400;5.494;2023-03-04T20:43:01;102208.22;;;5.11;100.00
47897;BME280;39629;51.400;5.494;2023-03-04T20:48:05;102210.63;;;5.07;100.00
47897;BME280;39629;51.400;5.494;2023-03-04T20:53:06;102209.66;;;5.05;100.00
47897;BME280;39629;51.400;5.494;2023-03-04T20:58:09;102198.34;;;5.04;100.00
47897;BME280;39629;51.400;5.494;2023-03-04T21:03:11;102207.88;;;5.04;100.00
47897;BME280;39629;51.400;5.494;2023-03-04T21:08:13;102207.97;;;5.05;100.00
47897;BME280;39629;51.400;5.494;2023-03-04T21:13:15;102207.81;;;5.02;100.00
47897;BME280;39629;51.400;5.494;2023-03-04T21:18:20;102213.78;;;5.00;100.00
47897;BME280;39629;51.400;5.494;2023-03-04T21:23:22;102199.75;;;4.96;100.00
47897;BME280;39629;51.400;5.494;2023-03-04T21:28:25;102197.06;;;4.94;100.00
47897;BME280;39629;51.400;5.494;2023-03-04T21:33:31;102189.19;;;4.93;100.00
47897;BME280;39629;51.400;5.494;2023-03-04T21:38:33;102184.78;;;4.92;100.00
47897;BME280;39629;51.400;5.494;2023-03-04T21:43:36;102183.69;;;4.87;100.00
47897;BME280;39629;51.400;5.494;2023-03-04T21:48:38;102167.81;;;4.81;100.00
47897;BME280;39629;51.400;5.494;2023-03-04T21:53:41;102177.47;;;4.83;100.00
47897;BME280;39629;51.400;5.494;2023-03-04T21:58:45;102176.44;;;4.80;100.00
47897;BME280;39629;51.400;5.494;2023-03-04T22:03:47;102170.28;;;4.78;100.00
47897;BME280;39629;51.400;5.494;2023-03-04T22:08:49;102164.72;;;4.70;100.00
47897;BME280;39629;51.400;5.494;2023-03-04T22:13:54;102167.16;;;4.65;100.00
47897;BME280;39629;51.400;5.494;2023-03-04T22:18:55;102166.19;;;4.63;100.00
47897;BME280;39629;51.400;5.494;2023-03-04T22:23:57;102165.50;;;4.67;100.00
47897;BME280;39629;51.400;5.494;2023-03-04T22:29:00;102162.75;;;4.64;100.00
47897;BME280;39629;51.400;5.494;2023-03-04T22:34:04;102158.41;;;4.65;100.00
47897;BME280;39629;51.400;5.494;2023-03-04T22:39:09;102155.56;;;4.58;100.00
47897;BME280;39629;51.400;5.494;2023-03-04T22:44:12;102157.81;;;4.51;100.00
47897;BME280;39629;51.400;5.494;2023-03-04T22:49:14;102163.16;;;4.54;100.00
47897;BME280;39629;51.400;5.494;2023-03-04T22:54:17;102156.25;;;4.54;100.00
47897;BME280;39629;51.400;5.494;2023-03-04T22:59:20;102147.34;;;4.49;100.00
47897;BME280;39629;51.400;5.494;2023-03-04T23:04:22;102141.81;;;4.41;100.00
47897;BME280;39629;51.400;5.494;2023-03-04T23:09:24;102148.94;;;4.46;100.00
47897;BME280;39629;51.400;5.494;2023-03-04T23:14:27;102145.22;;;4.40;100.00
47897;BME280;39629;51.400;5.494;2023-03-04T23:19:28;102130.22;;;4.35;100.00
47897;BME280;39629;51.400;5.494;2023-03-04T23:24:30;102131.84;;;4.33;100.00
47897;BME280;39629;51.400;5.494;2023-03-04T23:29:33;102135.50;;;4.36;100.00
47897;BME280;39629;51.400;5.494;2023-03-04T23:34:34;102133.41;;;4.28;100.00
47897;BME280;39629;51.400;5.494;2023-03-04T23:39:36;102133.41;;;4.28;100.00
47897;BME280;39629;51.400;5.494;2023-03-04T23:44:39;102129.81;;;4.25;100.00
47897;BME280;39629;51.400;5.494;2023-03-04T23:49:40;102125.34;;;4.23;100.00
47897;BME280;39629;51.400;5.494;2023-03-04T23:54:42;102123.44;;;4.19;100.00
47897;BME280;39629;51.400;5.494;2023-03-04T23:59:45;102114.50;;;4.14;100.00
